createdAt,value
2019-03-08T00:01:31.151Z,77.70
2019-03-08T00:04:00.726Z,79.40
2019-03-08T00:06:35.912Z,78.20
2019-03-08T00:09:06.347Z,78.40
2019-03-08T00:11:36.111Z,77.90
2019-03-08T00:14:06.146Z,77.30
2019-03-08T00:16:35.944Z,77.40
2019-03-08T00:19:05.894Z,77.50
2019-03-08T00:21:35.560Z,78.70
2019-03-08T00:24:05.979Z,77.90
2019-03-08T00:26:35.780Z,79.10
2019-03-08T00:29:05.820Z,78.00
2019-03-08T00:31:36.040Z,77.50
2019-03-08T00:34:05.653Z,78.30
2019-03-08T00:36:35.527Z,78.20
2019-03-08T00:39:07.863Z,77.50
2019-03-08T00:41:42.785Z,78.60
2019-03-08T00:44:12.688Z,77.30
2019-03-08T00:46:42.246Z,77.30
2019-03-08T00:49:12.331Z,76.50
2019-03-08T00:51:42.119Z,75.90
2019-03-08T00:54:11.937Z,76.70
2019-03-08T00:56:41.522Z,76.00
2019-03-08T00:59:11.361Z,75.60
2019-03-08T01:01:40.970Z,76.30
2019-03-08T01:04:10.709Z,75.90
2019-03-08T01:06:40.262Z,75.80
2019-03-08T01:09:10.099Z,75.60
2019-03-08T01:11:40.210Z,74.80
2019-03-08T01:14:09.885Z,75.80
2019-03-08T01:16:39.414Z,75.30
2019-03-08T01:19:08.972Z,74.40
2019-03-08T01:21:38.660Z,75.70
2019-03-08T01:24:08.394Z,74.30
2019-03-08T01:26:38.231Z,74.80
2019-03-08T01:29:08.235Z,74.10
2019-03-08T01:31:37.968Z,74.60
2019-03-08T01:34:07.565Z,74.30
2019-03-08T01:36:37.223Z,73.30
2019-03-08T01:39:07.890Z,73.20
2019-03-08T01:41:37.491Z,74.10
2019-03-08T01:44:07.083Z,74.60
2019-03-08T01:49:11.539Z,74.70
2019-03-08T01:51:41.219Z,73.70
2019-03-08T01:54:10.861Z,72.50
2019-03-08T01:56:40.458Z,72.20
2019-03-08T01:59:10.024Z,72.10
2019-03-08T02:01:39.804Z,72.40
2019-03-08T02:04:09.530Z,73.00
2019-03-08T02:06:39.737Z,71.50
2019-03-08T02:09:09.362Z,71.60
2019-03-08T02:11:39.465Z,71.10
2019-03-08T02:14:09.500Z,70.50
2019-03-08T02:16:39.168Z,71.70
2019-03-08T02:19:08.825Z,70.90
2019-03-08T02:21:38.512Z,70.10
2019-03-08T02:24:08.276Z,70.60
2019-03-08T02:26:38.054Z,71.00
2019-03-08T02:29:07.766Z,70.20
2019-03-08T02:31:37.554Z,70.70
2019-03-08T02:34:07.267Z,70.40
2019-03-08T02:36:36.790Z,70.90
2019-03-08T02:39:07.935Z,70.40
2019-03-08T02:41:37.536Z,71.20
2019-03-08T02:44:07.354Z,72.40
2019-03-08T02:46:36.832Z,72.20
2019-03-08T02:49:06.850Z,71.50
2019-03-08T02:51:36.688Z,70.40
2019-03-08T02:54:06.437Z,70.60
2019-03-08T02:56:36.136Z,70.20
2019-03-08T02:59:05.795Z,69.70
2019-03-08T03:01:35.684Z,69.80
2019-03-08T03:04:05.383Z,70.00
2019-03-08T03:06:34.989Z,70.40
2019-03-08T03:09:05.745Z,71.20
2019-03-08T03:11:35.606Z,70.70
2019-03-08T03:14:05.373Z,71.10
2019-03-08T03:16:35.301Z,71.50
2019-03-08T03:19:04.946Z,70.10
2019-03-08T03:21:35.043Z,70.30
2019-03-08T03:24:05.159Z,70.40
2019-03-08T03:26:34.883Z,70.90
2019-03-08T03:29:04.568Z,70.60
2019-03-08T03:31:34.203Z,70.80
2019-03-08T03:34:03.784Z,70.60
2019-03-08T03:36:33.283Z,70.40
2019-03-08T03:39:04.279Z,71.40
2019-03-08T03:41:33.850Z,70.70
2019-03-08T03:44:04.321Z,71.50
2019-03-08T03:46:33.916Z,71.20
2019-03-08T03:49:03.606Z,71.20
2019-03-08T03:51:33.489Z,72.00
2019-03-08T03:54:03.091Z,72.00
2019-03-08T03:56:32.635Z,71.30
2019-03-08T03:59:02.395Z,71.80
2019-03-08T04:01:44.239Z,71.50
2019-03-08T04:04:14.807Z,72.80
2019-03-08T04:06:44.623Z,72.20
2019-03-08T04:09:14.647Z,71.80
2019-03-08T04:11:44.555Z,72.60
2019-03-08T04:14:14.135Z,72.70
2019-03-08T04:16:44.107Z,73.00
2019-03-08T04:19:13.636Z,73.10
2019-03-08T04:21:43.319Z,73.50
2019-03-08T04:24:12.850Z,74.10
2019-03-08T04:26:42.572Z,73.20
2019-03-08T04:29:12.452Z,73.00
2019-03-08T04:31:42.200Z,73.40
2019-03-08T04:34:11.752Z,73.50
2019-03-08T04:36:41.431Z,73.70
2019-03-08T04:39:10.967Z,73.30
2019-03-08T04:41:41.060Z,73.20
2019-03-08T04:44:10.628Z,72.90
2019-03-08T04:46:40.381Z,72.70
2019-03-08T04:49:10.036Z,73.50
2019-03-08T04:51:39.683Z,73.10
2019-03-08T04:54:09.273Z,73.60
2019-03-08T04:56:39.160Z,73.20
2019-03-08T04:59:08.670Z,73.20
2019-03-08T05:01:38.278Z,72.90
2019-03-08T05:04:08.589Z,74.00
2019-03-08T05:06:38.481Z,73.10
2019-03-08T05:09:10.012Z,73.70
2019-03-08T05:11:39.930Z,73.50
2019-03-08T05:14:09.484Z,73.40
2019-03-08T05:16:39.014Z,73.30
2019-03-08T05:19:09.442Z,73.70
2019-03-08T05:21:39.420Z,74.30
2019-03-08T05:24:09.780Z,73.80
2019-03-08T05:26:39.387Z,73.50
2019-03-08T05:29:09.131Z,74.40
2019-03-08T05:31:40.602Z,73.80
2019-03-08T05:34:11.035Z,74.00
2019-03-08T05:36:41.714Z,74.10
2019-03-08T05:39:14.600Z,74.60
2019-03-08T05:41:44.203Z,74.80
2019-03-08T05:44:15.562Z,74.80
2019-03-08T05:46:46.619Z,74.40
2019-03-08T05:49:16.519Z,74.10
2019-03-08T05:51:46.558Z,74.20
2019-03-08T05:54:16.987Z,74.30
2019-03-08T05:56:46.550Z,74.40
2019-03-08T05:59:16.334Z,74.70
2019-03-08T06:01:46.493Z,74.80
2019-03-08T06:04:16.249Z,74.80
2019-03-08T06:06:45.808Z,75.50
2019-03-08T06:09:15.519Z,75.20
2019-03-08T06:11:45.231Z,75.70
2019-03-08T06:14:15.663Z,75.70
2019-03-08T06:16:45.274Z,75.90
2019-03-08T06:19:15.611Z,75.60
2019-03-08T06:21:45.201Z,75.10
2019-03-08T06:24:16.702Z,75.50
2019-03-08T06:26:46.873Z,75.60
2019-03-08T06:29:18.153Z,75.20
2019-03-08T06:31:47.896Z,75.40
2019-03-08T06:34:17.767Z,75.60
2019-03-08T06:36:47.529Z,75.30
2019-03-08T06:39:17.271Z,75.10
2019-03-08T06:41:46.999Z,75.50
2019-03-08T06:44:16.652Z,75.10
2019-03-08T06:46:46.303Z,74.70
2019-03-08T06:49:15.921Z,74.30
2019-03-08T06:51:45.650Z,73.90
2019-03-08T06:54:15.978Z,71.30
2019-03-08T06:56:45.594Z,70.80
2019-03-08T06:59:20.675Z,70.10
2019-03-08T07:01:51.559Z,70.70
2019-03-08T07:04:21.771Z,70.10
2019-03-08T07:06:51.799Z,69.70
2019-03-08T07:09:21.384Z,69.30
2019-03-08T07:11:52.118Z,69.40
2019-03-08T07:14:21.736Z,69.60
2019-03-08T07:16:51.483Z,69.30
2019-03-08T07:19:21.057Z,69.90
2019-03-08T07:22:04.279Z,69.60
2019-03-08T07:24:50.869Z,68.80
2019-03-08T07:27:38.403Z,66.90
2019-03-08T07:30:44.071Z,65.50
2019-03-08T07:33:29.107Z,65.90
2019-03-08T07:36:20.731Z,65.80
2019-03-08T07:39:15.401Z,66.00
2019-03-08T07:41:59.171Z,66.50
2019-03-08T07:44:35.323Z,67.00
2019-03-08T07:47:27.087Z,67.30
2019-03-08T07:50:15.639Z,68.10
2019-03-08T07:53:22.727Z,68.30
2019-03-08T07:56:14.250Z,69.00
2019-03-08T07:59:01.665Z,69.00
2019-03-08T08:01:56.739Z,69.80
2019-03-08T08:04:44.168Z,70.10
2019-03-08T08:07:26.881Z,69.50
2019-03-08T08:10:16.049Z,70.10
2019-03-08T08:13:03.348Z,69.70
2019-03-08T08:16:10.255Z,69.10
2019-03-08T08:18:59.348Z,68.20
2019-03-08T08:21:58.515Z,68.30
2019-03-08T08:24:48.023Z,68.00
2019-03-08T08:27:26.503Z,67.30
2019-03-08T08:30:15.686Z,67.40
2019-03-08T08:33:04.195Z,67.00
2019-03-08T08:35:52.775Z,66.70
2019-03-08T08:38:56.828Z,66.40
2019-03-08T08:41:50.896Z,66.50
2019-03-08T08:44:37.663Z,66.40
2019-03-08T08:47:24.719Z,65.50
2019-03-08T08:50:13.534Z,65.40
2019-03-08T08:53:02.045Z,65.50
2019-03-08T08:55:56.499Z,64.90
2019-03-08T08:58:48.476Z,64.90
2019-03-08T09:01:35.671Z,63.30
2019-03-08T09:04:27.311Z,62.00
2019-03-08T09:07:25.333Z,60.00
2019-03-08T09:10:06.398Z,59.10
2019-03-08T09:12:54.152Z,59.20
2019-03-08T09:15:42.782Z,58.60
2019-03-08T09:18:30.165Z,58.60
2019-03-08T09:21:17.392Z,58.40
2019-03-08T09:24:12.294Z,60.00
2019-03-08T09:27:04.036Z,60.90
2019-03-08T09:29:50.003Z,61.20
2019-03-08T09:32:25.366Z,62.20
2019-03-08T09:35:05.082Z,62.60
2019-03-08T09:37:58.628Z,63.00
2019-03-08T09:40:50.335Z,62.90
2019-03-08T09:43:38.581Z,62.20
2019-03-08T09:46:18.248Z,62.40
2019-03-08T09:49:06.973Z,62.40
2019-03-08T09:52:05.625Z,62.10
2019-03-08T09:54:54.774Z,62.10
2019-03-08T09:57:42.016Z,62.30
2019-03-08T10:00:35.791Z,63.60
2019-03-08T10:03:23.698Z,63.30
2019-03-08T10:06:18.145Z,63.80
2019-03-08T10:08:59.601Z,63.10
2019-03-08T10:11:38.108Z,62.80
2019-03-08T10:14:30.420Z,62.90
2019-03-08T10:17:06.099Z,62.00
2019-03-08T10:19:57.167Z,61.20
2019-03-08T10:22:48.718Z,58.90
2019-03-08T10:25:40.041Z,58.20
2019-03-08T10:28:19.567Z,58.10
2019-03-08T10:31:11.094Z,57.10
2019-03-08T10:34:00.490Z,55.50
2019-03-08T10:36:52.935Z,51.80
2019-03-08T10:39:38.696Z,48.80
2019-03-08T10:42:15.046Z,46.70
2019-03-08T10:45:03.774Z,45.00
2019-03-08T10:47:56.138Z,44.30
2019-03-08T10:50:42.244Z,44.80
2019-03-08T10:53:31.538Z,45.50
2019-03-08T10:56:22.103Z,45.60
2019-03-08T10:59:14.983Z,44.40
2019-03-08T11:02:03.638Z,44.50
2019-03-08T11:04:42.092Z,43.50
2019-03-08T11:07:26.611Z,41.60
2019-03-08T11:10:15.259Z,39.70
2019-03-08T11:13:22.071Z,38.00
2019-03-08T11:16:26.171Z,36.40
2019-03-08T11:19:17.669Z,35.00
2019-03-08T11:21:57.581Z,35.40
2019-03-08T11:24:46.386Z,36.70
2019-03-08T11:27:34.125Z,38.70
2019-03-08T11:30:42.008Z,39.80
2019-03-08T11:33:35.716Z,40.30
2019-03-08T11:36:13.108Z,41.40
2019-03-08T11:39:05.679Z,42.80
2019-03-08T11:41:47.404Z,44.00
2019-03-08T11:44:33.170Z,44.40
2019-03-08T11:47:20.646Z,44.50
2019-03-08T11:50:27.636Z,45.80
2019-03-08T11:53:26.111Z,45.20
2019-03-08T11:56:07.919Z,45.80
2019-03-08T11:58:52.151Z,46.30
2019-03-08T12:01:41.227Z,47.20
2019-03-08T12:04:30.546Z,46.80
2019-03-08T12:07:22.008Z,46.70
2019-03-08T12:10:03.642Z,47.30
2019-03-08T12:12:52.566Z,47.20
2019-03-08T12:15:55.388Z,47.10
2019-03-08T12:18:44.719Z,47.00
2019-03-08T12:21:24.943Z,46.40
2019-03-08T12:24:17.494Z,47.40
2019-03-08T12:27:09.129Z,47.50
2019-03-08T12:30:01.108Z,48.50
2019-03-08T12:32:36.084Z,48.70
2019-03-08T12:35:25.420Z,48.50
2019-03-08T12:38:17.461Z,48.20
2019-03-08T12:41:08.861Z,47.60
2019-03-08T12:44:02.429Z,47.90
2019-03-08T12:46:54.527Z,48.00
2019-03-08T12:49:36.308Z,48.40
2019-03-08T12:52:32.416Z,48.40
2019-03-08T12:55:19.943Z,48.90
2019-03-08T12:58:18.203Z,49.50
2019-03-08T13:01:10.097Z,49.30
2019-03-08T13:03:54.748Z,49.10
2019-03-08T13:06:44.013Z,49.00
2019-03-08T13:09:36.844Z,48.90
2019-03-08T13:12:06.699Z,49.50
2019-03-08T13:14:36.666Z,48.50
2019-03-08T13:17:06.591Z,48.70
2019-03-08T13:19:39.812Z,48.50
2019-03-08T13:22:09.630Z,48.80
2019-03-08T13:24:41.360Z,48.80
2019-03-08T13:27:11.337Z,49.40
2019-03-08T13:29:43.336Z,49.30
2019-03-08T13:32:13.259Z,49.30
2019-03-08T13:34:43.360Z,49.10
2019-03-08T13:37:13.628Z,49.50
2019-03-08T13:39:44.355Z,49.10
2019-03-08T13:42:15.735Z,49.00
2019-03-08T13:44:47.750Z,49.30
2019-03-08T13:47:17.746Z,49.00
2019-03-08T13:49:48.436Z,49.70
2019-03-08T13:52:19.492Z,49.70
2019-03-08T13:54:50.397Z,50.10
2019-03-08T13:57:22.037Z,50.40
2019-03-08T13:59:53.782Z,50.30
2019-03-08T14:02:23.725Z,51.00
2019-03-08T14:04:53.675Z,50.30
2019-03-08T14:07:24.149Z,51.00
2019-03-08T14:09:54.301Z,51.80
2019-03-08T14:12:28.465Z,51.90
2019-03-08T14:14:59.974Z,52.30
2019-03-08T14:17:32.935Z,52.60
2019-03-08T14:20:02.907Z,52.70
2019-03-08T14:22:33.682Z,53.50
2019-03-08T14:25:04.619Z,53.80
2019-03-08T14:27:35.862Z,54.20
2019-03-08T14:30:05.818Z,54.80
2019-03-08T14:32:36.404Z,54.50
2019-03-08T14:35:06.844Z,54.50
2019-03-08T14:37:37.086Z,55.50
2019-03-08T14:40:20.634Z,55.50
2019-03-08T14:42:56.362Z,56.10
2019-03-08T14:45:40.584Z,56.90
2019-03-08T14:48:09.581Z,56.60
2019-03-08T14:50:40.747Z,56.90
2019-03-08T14:53:13.993Z,57.00
2019-03-08T14:55:43.491Z,57.70
2019-03-08T14:58:13.671Z,57.30
2019-03-08T15:00:43.472Z,57.30
2019-03-08T15:03:14.064Z,57.50
2019-03-08T15:05:44.012Z,57.50
2019-03-08T15:08:17.823Z,57.70
2019-03-08T15:10:47.311Z,57.20
2019-03-08T15:13:20.230Z,57.90
2019-03-08T15:15:49.868Z,57.60
2019-03-08T15:18:20.248Z,57.50
2019-03-08T15:20:54.776Z,58.10
2019-03-08T15:23:22.878Z,58.20
2019-03-08T15:25:52.640Z,58.40
2019-03-08T15:28:23.083Z,57.90
2019-03-08T15:30:53.088Z,58.50
2019-03-08T15:33:23.741Z,58.60
2019-03-08T15:35:56.510Z,58.80
2019-03-08T15:38:27.651Z,58.90
2019-03-08T15:40:58.453Z,59.40
2019-03-08T15:43:31.336Z,59.10
2019-03-08T15:46:02.111Z,59.90
2019-03-08T15:48:33.463Z,59.50
2019-03-08T15:51:03.935Z,59.70
2019-03-08T15:53:33.708Z,60.00
2019-03-08T15:56:05.251Z,60.50
2019-03-08T15:58:36.638Z,61.10
2019-03-08T16:01:08.109Z,61.20
2019-03-08T16:03:38.446Z,62.00
2019-03-08T16:06:08.184Z,62.20
2019-03-08T16:08:39.822Z,63.10
2019-03-08T16:11:09.958Z,62.80
2019-03-08T16:13:40.155Z,63.50
2019-03-08T16:16:10.511Z,63.80
2019-03-08T16:18:44.412Z,64.10
2019-03-08T16:21:14.288Z,64.70
2019-03-08T16:23:45.983Z,64.20
2019-03-08T16:26:16.215Z,64.10
2019-03-08T16:28:45.831Z,64.50
2019-03-08T16:31:30.418Z,65.60
2019-03-08T16:34:01.114Z,65.20
2019-03-08T16:37:03.463Z,66.90
2019-03-08T16:40:04.443Z,66.90
2019-03-08T16:42:43.367Z,67.70
2019-03-08T16:45:35.079Z,67.40
2019-03-08T16:48:15.029Z,68.00
2019-03-08T16:51:03.686Z,68.60
2019-03-08T16:53:55.732Z,68.70
2019-03-08T16:56:43.057Z,69.60
2019-03-08T16:59:22.415Z,69.90
2019-03-08T17:02:05.378Z,69.80
2019-03-08T17:04:54.818Z,70.00
2019-03-08T17:07:50.366Z,70.20
2019-03-08T17:10:39.623Z,70.30
2019-03-08T17:13:29.849Z,70.80
2019-03-08T17:16:27.814Z,70.80
2019-03-08T17:19:19.726Z,71.90
2019-03-08T17:21:55.435Z,72.00
2019-03-08T17:24:45.392Z,71.60
2019-03-08T17:27:27.756Z,72.20
2019-03-08T17:30:11.537Z,72.80
2019-03-08T17:32:59.884Z,72.90
2019-03-08T17:35:57.386Z,73.80
2019-03-08T17:38:44.758Z,73.80
2019-03-08T17:41:23.780Z,73.70
2019-03-08T17:44:08.234Z,74.10
2019-03-08T17:46:47.929Z,73.80
2019-03-08T17:49:36.744Z,73.70
2019-03-08T17:52:31.950Z,73.30
2019-03-08T17:55:15.848Z,74.10
2019-03-08T17:58:06.491Z,74.50
2019-03-08T18:00:42.939Z,74.40
2019-03-08T18:03:19.141Z,74.20
2019-03-08T18:06:16.524Z,74.80
2019-03-08T18:09:15.229Z,75.00
2019-03-08T18:12:23.361Z,75.40
2019-03-08T18:15:13.081Z,75.20
2019-03-08T18:17:57.790Z,75.50
2019-03-08T18:20:41.031Z,75.70
2019-03-08T18:23:27.254Z,75.50
2019-03-08T18:26:14.226Z,75.30
2019-03-08T18:29:01.855Z,75.60
2019-03-08T18:31:58.280Z,75.30
2019-03-08T18:34:47.378Z,75.70
2019-03-08T18:37:35.323Z,75.60
2019-03-08T18:40:28.905Z,76.00
2019-03-08T18:43:17.757Z,76.00
2019-03-08T18:46:05.928Z,75.90
2019-03-08T18:48:55.515Z,76.10
2019-03-08T18:52:01.749Z,75.90
2019-03-08T18:55:02.924Z,75.90
2019-03-08T18:58:04.470Z,75.60
2019-03-08T19:00:42.241Z,76.10
2019-03-08T19:03:23.408Z,76.60
2019-03-08T19:06:06.954Z,75.80
2019-03-08T19:09:01.424Z,75.90
2019-03-08T19:12:04.221Z,76.10
2019-03-08T19:14:54.894Z,76.10
2019-03-08T19:17:44.420Z,75.70
2019-03-08T19:20:25.735Z,76.40
2019-03-08T19:23:26.422Z,76.70
2019-03-08T19:26:13.775Z,76.30
2019-03-08T19:28:58.702Z,76.50
2019-03-08T19:31:51.236Z,76.60
2019-03-08T19:34:52.003Z,76.60
2019-03-08T19:37:41.066Z,77.10
2019-03-08T19:40:35.881Z,76.60
2019-03-08T19:43:24.973Z,77.30
2019-03-08T19:46:16.800Z,77.00
2019-03-08T19:49:14.845Z,76.90
2019-03-08T19:52:03.081Z,76.80
2019-03-08T19:54:53.004Z,76.80
2019-03-08T19:57:42.060Z,77.00
2019-03-08T20:00:21.233Z,77.20
2019-03-08T20:03:10.012Z,77.40
2019-03-08T20:05:59.106Z,77.50
2019-03-08T20:11:33.470Z,77.50
2019-03-08T20:14:26.795Z,77.70
2019-03-08T20:17:15.438Z,77.30
2019-03-08T20:20:13.325Z,77.80
2019-03-08T20:23:07.825Z,77.50
2019-03-08T20:26:02.871Z,77.00
2019-03-08T20:28:56.017Z,77.10
2019-03-08T20:34:26.756Z,77.50
2019-03-08T20:37:16.407Z,77.50
2019-03-08T20:40:11.896Z,77.30
2019-03-08T20:42:59.615Z,76.90
2019-03-08T20:45:53.408Z,77.00
2019-03-08T20:48:29.441Z,76.60
2019-03-08T20:50:59.576Z,77.00
2019-03-08T20:53:32.319Z,76.60
2019-03-08T20:56:03.722Z,77.00
2019-03-08T20:58:33.677Z,76.30
2019-03-08T21:01:05.510Z,76.30
2019-03-08T21:03:35.408Z,75.90
2019-03-08T21:06:05.718Z,76.20
2019-03-08T21:08:35.310Z,76.00
2019-03-08T21:11:05.579Z,76.90
2019-03-08T21:13:35.986Z,76.00
2019-03-08T21:16:06.270Z,75.80
2019-03-08T21:18:37.094Z,76.20
2019-03-08T21:21:07.618Z,76.00
2019-03-08T21:23:38.034Z,76.10
2019-03-08T21:26:09.720Z,76.40
2019-03-08T21:28:40.739Z,76.10
2019-03-08T21:31:12.616Z,76.50
2019-03-08T21:33:42.884Z,76.30
2019-03-08T21:36:12.814Z,76.80
2019-03-08T21:38:42.753Z,76.70
2019-03-08T21:41:12.751Z,76.70
2019-03-08T21:43:43.364Z,76.90
2019-03-08T21:46:13.191Z,76.40
2019-03-08T21:48:42.889Z,77.10
2019-03-08T21:51:13.214Z,76.40
2019-03-08T21:53:43.035Z,76.10
2019-03-08T21:56:12.891Z,76.40
2019-03-08T21:58:42.862Z,77.00
2019-03-08T22:01:12.743Z,77.00
2019-03-08T22:03:44.566Z,76.70
2019-03-08T22:06:14.731Z,76.50
2019-03-08T22:08:55.701Z,77.30
2019-03-08T22:11:34.241Z,77.40
2019-03-08T22:14:04.953Z,77.10
2019-03-08T22:16:35.301Z,77.40
2019-03-08T22:19:05.782Z,77.00
2019-03-08T22:21:36.048Z,77.70
2019-03-08T22:24:13.081Z,77.60
2019-03-08T22:26:38.635Z,77.30
2019-03-08T22:29:08.592Z,77.40
2019-03-08T22:31:38.886Z,77.10
2019-03-08T22:34:09.283Z,77.50
2019-03-08T22:36:40.714Z,77.60
2019-03-08T22:39:10.815Z,77.50
2019-03-08T22:41:41.369Z,77.20
2019-03-08T22:44:11.742Z,77.40
2019-03-08T22:46:45.264Z,77.50
2019-03-08T22:49:13.059Z,77.40
2019-03-08T22:51:43.279Z,77.20
2019-03-08T22:54:13.711Z,77.30
2019-03-08T22:56:44.162Z,77.60
2019-03-08T22:59:14.552Z,77.60
2019-03-08T23:01:51.664Z,77.40
2019-03-08T23:04:21.830Z,78.20
2019-03-08T23:06:52.183Z,77.70
2019-03-08T23:09:22.228Z,77.30
2019-03-08T23:11:52.777Z,77.60
2019-03-08T23:14:23.083Z,77.10
2019-03-08T23:16:53.378Z,77.10
2019-03-08T23:19:23.229Z,76.80
2019-03-08T23:21:53.857Z,76.40
2019-03-08T23:24:24.329Z,76.10
2019-03-08T23:27:06.866Z,76.30
2019-03-08T23:29:44.341Z,76.50
2019-03-08T23:32:39.862Z,75.90
2019-03-08T23:35:10.232Z,75.70
2019-03-08T23:37:40.639Z,75.80
2019-03-08T23:40:10.953Z,75.90
2019-03-08T23:42:41.551Z,75.80
2019-03-08T23:45:11.953Z,75.80
2019-03-08T23:47:41.723Z,76.20
2019-03-08T23:50:12.251Z,75.90
2019-03-08T23:52:43.112Z,75.80
2019-03-08T23:55:13.399Z,76.10
2019-03-08T23:57:44.077Z,76.00
